Terminal Aerodrome Forecast
Issued by NWS

Home | Current Version | Previous Version | Text Only | Print | Product List | Glossary On
Versions: 1 2 3 4 5 6 7 8 9 10 11 12 13 14 15 16 17 18 19
000
FTUS46 KMFR 200536
TAFRBG
TAF
KRBG 200536Z 2006/2106 01007KT P6SM BKN150
     FM201000 01004KT P6SM SCT015 OVC025
     FM201800 01005KT P6SM BKN040
     FM202200 36008KT P6SM SCT060=

USA.gov is the U.S. government's official web portal to all federal, state and local government web resources and services.